Time;durP1;ratioP1;P1;durP2;ratioP2;P2;SDS_P1;SDS_P2;PMS_P1;PMS_P2;Temp;Humidity;BMP_temperature;BMP_pressure;BME280_temperature;BME280_humidity;BME280_pressure;Samples;Min_cycle;Max_cycle;Signal;HPM_P1;HPM_P2
2021/09/09 00:00:08;;;;;;;35.72;18.67;;;;;;;;;;5056889;28;20040;-67
2021/09/09 00:02:59;;;;;;;33.80;19.00;;;;;;;;;;5057019;28;20463;-66
2021/09/09 00:05:25;;;;;;;31.90;18.73;;;;;;;;;;5053112;28;20037;-67
2021/09/09 00:07:53;;;;;;;36.53;18.83;;;;;;;;;;5054942;28;20073;-66
2021/09/09 00:10:21;;;;;;;32.85;18.58;;;;;;;;;;5066566;28;20052;-67
2021/09/09 00:12:48;;;;;;;34.85;19.85;;;;;;;;;;5060325;28;20049;-66
2021/09/09 00:15:16;;;;;;;35.30;18.88;;;;;;;;;;5056596;28;20128;-66
2021/09/09 00:17:43;;;;;;;35.45;20.65;;;;;;;;;;5055660;28;20051;-66
2021/09/09 00:20:10;;;;;;;35.05;20.35;;;;;;;;;;5052951;28;23759;-66
2021/09/09 00:22:37;;;;;;;36.88;18.77;;;;;;;;;;5057410;28;20068;-67
2021/09/09 00:25:04;;;;;;;31.45;18.48;;;;;;;;;;5060034;28;20055;-67
2021/09/09 00:27:31;;;;;;;34.58;19.20;;;;;;;;;;5060267;28;20041;-66
2021/09/09 00:29:58;;;;;;;31.95;18.77;;;;;;;;;;5059974;28;20517;-66
2021/09/09 00:32:25;;;;;;;36.05;19.02;;;;;;;;;;5056682;28;20041;-66
2021/09/09 00:34:52;;;;;;;34.53;18.50;;;;;;;;;;5058184;28;20115;-66
2021/09/09 00:37:21;;;;;;;33.65;18.63;;;;;;;;;;5069418;28;20091;-66
2021/09/09 00:39:47;;;;;;;33.47;18.45;;;;;;;;;;5063888;28;20071;-67
2021/09/09 00:42:13;;;;;;;35.35;19.05;;;;;;;;;;5059845;28;20045;-67
2021/09/09 00:44:40;;;;;;;36.25;18.85;;;;;;;;;;5058180;28;20055;-67
2021/09/09 00:47:08;;;;;;;34.97;19.23;;;;;;;;;;5056689;28;20106;-67
2021/09/09 00:49:35;;;;;;;35.47;19.17;;;;;;;;;;5070667;28;20079;-66
2021/09/09 00:52:02;;;;;;;32.95;17.17;;;;;;;;;;5061455;28;20068;-67
2021/09/09 00:54:28;;;;;;;34.15;17.92;;;;;;;;;;5059703;28;20048;-67
2021/09/09 00:56:56;;;;;;;32.97;18.35;;;;;;;;;;5059765;28;20048;-67
2021/09/09 00:59:22;;;;;;;33.08;17.75;;;;;;;;;;5055743;28;20048;-66
2021/09/09 01:01:48;;;;;;;36.05;17.55;;;;;;;;;;5058323;28;20044;-67
2021/09/09 01:04:15;;;;;;;33.67;18.42;;;;;;;;;;5068591;28;20070;-66
2021/09/09 01:06:42;;;;;;;38.67;18.67;;;;;;;;;;5064004;28;20100;-67
2021/09/09 01:09:08;;;;;;;27.08;15.75;;;;;;;;;;5059565;28;20037;-67
2021/09/09 01:11:35;;;;;;;28.05;16.75;;;;;;;;;;5057306;28;20074;-67
2021/09/09 01:14:12;;;;;;;35.72;18.45;;;;;;;;;;5056971;28;20049;-66
2021/09/09 01:16:38;;;;;;;33.35;17.33;;;;;;;;;;5058697;28;20052;-66
2021/09/09 01:19:05;;;;;;;31.85;16.75;;;;;;;;;;5059206;28;20081;-66
2021/09/09 01:21:32;;;;;;;33.53;18.02;;;;;;;;;;5059097;28;20060;-66
2021/09/09 01:23:59;;;;;;;34.25;16.58;;;;;;;;;;5059071;28;20168;-66
2021/09/09 01:26:27;;;;;;;33.45;16.05;;;;;;;;;;5056465;28;20064;-67
2021/09/09 01:28:58;;;;;;;31.63;17.35;;;;;;;;;;5070113;28;20064;-66
2021/09/09 01:31:24;;;;;;;28.63;16.45;;;;;;;;;;5068750;28;20106;-67
2021/09/09 01:33:55;;;;;;;28.67;16.42;;;;;;;;;;5061345;28;20072;-67
2021/09/09 01:36:21;;;;;;;29.98;16.67;;;;;;;;;;5058746;28;20055;-67
2021/09/09 01:38:47;;;;;;;26.20;15.30;;;;;;;;;;5058365;28;20041;-67
2021/09/09 01:41:14;;;;;;;31.52;15.63;;;;;;;;;;5054879;28;20064;-67
2021/09/09 01:43:40;;;;;;;26.98;15.50;;;;;;;;;;5058394;28;20117;-67
2021/09/09 01:46:06;;;;;;;29.17;16.20;;;;;;;;;;5058572;28;20044;-67
2021/09/09 01:48:33;;;;;;;34.70;16.67;;;;;;;;;;5058600;28;20072;-66
2021/09/09 01:50:59;;;;;;;26.80;16.17;;;;;;;;;;5059124;28;20129;-66
2021/09/09 01:53:25;;;;;;;26.88;14.63;;;;;;;;;;5055150;28;20098;-66
2021/09/09 01:55:52;;;;;;;25.50;15.43;;;;;;;;;;5056637;28;20107;-65
2021/09/09 01:58:18;;;;;;;24.90;15.73;;;;;;;;;;5058950;28;20084;-67
2021/09/09 02:00:45;;;;;;;24.25;14.90;;;;;;;;;;5058225;28;20037;-66
2021/09/09 02:03:11;;;;;;;26.88;14.80;;;;;;;;;;5058371;28;20075;-67
2021/09/09 02:05:37;;;;;;;24.92;14.23;;;;;;;;;;5055573;28;20114;-67
2021/09/09 02:08:04;;;;;;;25.30;14.48;;;;;;;;;;5070272;28;20127;-67
2021/09/09 02:10:31;;;;;;;25.77;14.80;;;;;;;;;;5058038;28;20091;-67
2021/09/09 02:12:58;;;;;;;22.30;13.43;;;;;;;;;;5067040;28;20461;-67
2021/09/09 02:15:25;;;;;;;29.52;15.68;;;;;;;;;;5064728;28;20147;-66
2021/09/09 02:17:51;;;;;;;25.58;14.00;;;;;;;;;;5058304;28;20079;-67
2021/09/09 02:20:17;;;;;;;24.92;14.50;;;;;;;;;;5053723;28;20053;-66
2021/09/09 02:22:44;;;;;;;24.48;13.80;;;;;;;;;;5057715;28;20056;-66
2021/09/09 02:25:11;;;;;;;29.95;14.98;;;;;;;;;;5057906;28;20111;-66
2021/09/09 02:27:37;;;;;;;26.48;14.43;;;;;;;;;;5058020;28;20096;-66
2021/09/09 02:30:04;;;;;;;27.98;14.60;;;;;;;;;;5057634;28;20044;-66
2021/09/09 02:32:30;;;;;;;28.08;14.48;;;;;;;;;;5055071;28;20076;-66
2021/09/09 02:34:56;;;;;;;28.52;14.55;;;;;;;;;;5055309;28;20056;-67
2021/09/09 02:37:22;;;;;;;29.27;15.40;;;;;;;;;;5058239;28;20120;-66
2021/09/09 02:39:49;;;;;;;28.90;15.05;;;;;;;;;;5057844;28;20131;-67
2021/09/09 02:42:15;;;;;;;26.83;15.35;;;;;;;;;;5059308;28;20048;-66
2021/09/09 02:44:41;;;;;;;29.15;16.52;;;;;;;;;;5054405;28;20036;-66
2021/09/09 02:47:08;;;;;;;29.50;15.10;;;;;;;;;;5069593;28;20053;-66
2021/09/09 02:49:34;;;;;;;31.45;15.88;;;;;;;;;;5056113;28;20052;-67
2021/09/09 02:52:00;;;;;;;29.05;15.20;;;;;;;;;;5057560;28;20047;-66
2021/09/09 02:54:27;;;;;;;26.48;15.38;;;;;;;;;;5057512;28;20408;-67
2021/09/09 02:56:53;;;;;;;26.67;14.55;;;;;;;;;;5057405;28;20045;-66
2021/09/09 02:59:20;;;;;;;28.15;14.85;;;;;;;;;;5053028;28;20051;-66
2021/09/09 03:01:46;;;;;;;24.52;13.85;;;;;;;;;;5068616;28;20071;-66
2021/09/09 03:04:12;;;;;;;24.55;14.00;;;;;;;;;;5057774;28;20057;-66
2021/09/09 03:06:39;;;;;;;27.80;13.80;;;;;;;;;;5058894;28;20073;-66
2021/09/09 03:09:05;;;;;;;23.27;13.85;;;;;;;;;;5057316;28;20071;-67
2021/09/09 03:11:31;;;;;;;29.92;14.98;;;;;;;;;;5054910;28;20048;-67
2021/09/09 03:13:58;;;;;;;24.00;13.90;;;;;;;;;;5054782;28;20041;-67
2021/09/09 03:16:24;;;;;;;27.05;13.77;;;;;;;;;;5056749;28;20069;-67
2021/09/09 03:18:50;;;;;;;25.98;13.52;;;;;;;;;;5056691;28;20394;-67
2021/09/09 03:21:17;;;;;;;23.50;13.45;;;;;;;;;;5056513;28;20071;-66
2021/09/09 03:23:43;;;;;;;26.85;14.80;;;;;;;;;;5054204;28;20072;-67
2021/09/09 03:26:09;;;;;;;24.65;13.05;;;;;;;;;;5068656;28;20049;-66
2021/09/09 03:28:36;;;;;;;26.67;14.00;;;;;;;;;;5056159;28;20056;-66
2021/09/09 03:31:02;;;;;;;25.40;14.05;;;;;;;;;;5056544;28;20439;-66
2021/09/09 03:33:29;;;;;;;25.52;14.15;;;;;;;;;;5056646;28;20045;-67
2021/09/09 03:35:55;;;;;;;26.90;13.23;;;;;;;;;;5056820;28;20468;-66
2021/09/09 03:38:21;;;;;;;28.58;14.00;;;;;;;;;;5052961;28;20118;-67
2021/09/09 03:40:48;;;;;;;22.98;13.40;;;;;;;;;;5056619;28;20115;-67
2021/09/09 03:43:14;;;;;;;23.50;13.63;;;;;;;;;;5056725;28;20131;-66
2021/09/09 03:45:40;;;;;;;25.70;12.93;;;;;;;;;;5057143;28;20072;-67
2021/09/09 03:48:07;;;;;;;24.10;12.80;;;;;;;;;;5056992;28;20040;-67
2021/09/09 03:50:33;;;;;;;23.13;13.10;;;;;;;;;;5054718;28;20048;-67
2021/09/09 03:53:00;;;;;;;26.48;13.85;;;;;;;;;;5054493;28;20061;-66
2021/09/09 03:55:26;;;;;;;28.42;13.60;;;;;;;;;;5056710;28;20045;-66
2021/09/09 03:57:52;;;;;;;24.48;13.98;;;;;;;;;;5059614;28;20053;-66
2021/09/09 04:00:19;;;;;;;25.60;12.95;;;;;;;;;;5060682;28;20123;-65
2021/09/09 04:02:45;;;;;;;22.67;11.55;;;;;;;;;;5057848;28;20041;-66
2021/09/09 04:05:11;;;;;;;23.05;12.93;;;;;;;;;;5072678;28;20115;-67
2021/09/09 04:07:38;;;;;;;24.77;13.75;;;;;;;;;;5060297;28;20183;-67
2021/09/09 04:10:04;;;;;;;22.67;12.80;;;;;;;;;;5060513;28;20045;-66
2021/09/09 04:12:31;;;;;;;20.63;12.88;;;;;;;;;;5060455;28;20155;-67
2021/09/09 04:14:58;;;;;;;22.98;13.00;;;;;;;;;;5060477;28;20064;-67
2021/09/09 04:17:24;;;;;;;23.55;12.95;;;;;;;;;;5056666;28;20045;-66
2021/09/09 04:19:51;;;;;;;29.55;13.38;;;;;;;;;;5058901;28;20191;-66
2021/09/09 04:22:17;;;;;;;22.50;12.32;;;;;;;;;;5059477;28;20080;-67
2021/09/09 04:24:44;;;;;;;30.30;12.98;;;;;;;;;;5060101;28;20406;-66
2021/09/09 04:27:11;;;;;;;26.65;13.15;;;;;;;;;;5060181;28;20559;-67
2021/09/09 04:29:38;;;;;;;24.40;13.45;;;;;;;;;;5058453;28;20534;-67
2021/09/09 04:32:04;;;;;;;26.17;14.57;;;;;;;;;;5063700;28;20037;-66
2021/09/09 04:34:30;;;;;;;21.30;12.70;;;;;;;;;;5059793;28;20048;-66
2021/09/09 04:36:57;;;;;;;31.48;13.40;;;;;;;;;;5059995;28;20469;-67
2021/09/09 04:39:23;;;;;;;25.92;12.73;;;;;;;;;;5059748;28;20555;-67
2021/09/09 04:41:49;;;;;;;24.67;13.98;;;;;;;;;;5057317;28;20116;-66
2021/09/09 04:44:16;;;;;;;27.10;14.23;;;;;;;;;;5071759;28;20135;-66
2021/09/09 04:46:42;;;;;;;24.77;13.68;;;;;;;;;;5059536;28;20053;-66
2021/09/09 04:49:09;;;;;;;25.42;15.05;;;;;;;;;;5059931;28;20049;-66
2021/09/09 04:51:35;;;;;;;30.92;14.68;;;;;;;;;;5059786;28;20076;-66
2021/09/09 04:54:02;;;;;;;24.35;14.38;;;;;;;;;;5059332;28;20383;-66
2021/09/09 04:56:28;;;;;;;27.02;15.43;;;;;;;;;;5058280;28;20045;-66
2021/09/09 04:58:54;;;;;;;28.25;14.73;;;;;;;;;;5072493;28;20175;-67
2021/09/09 05:01:21;;;;;;;30.08;15.15;;;;;;;;;;5060123;28;20052;-67
2021/09/09 05:03:47;;;;;;;29.77;15.45;;;;;;;;;;5059508;28;20049;-66
2021/09/09 05:06:13;;;;;;;27.33;17.13;;;;;;;;;;5059539;28;20065;-67
2021/09/09 05:08:40;;;;;;;30.80;15.18;;;;;;;;;;5057475;28;20132;-67
2021/09/09 05:11:09;;;;;;;34.67;15.63;;;;;;;;;;5056937;28;20483;-66
2021/09/09 05:13:35;;;;;;;33.15;15.52;;;;;;;;;;5059033;28;20115;-66
2021/09/09 05:16:01;;;;;;;34.08;14.88;;;;;;;;;;5061837;28;20131;-67
2021/09/09 05:18:27;;;;;;;31.20;15.88;;;;;;;;;;5067698;28;20094;-67
2021/09/09 05:20:54;;;;;;;31.42;15.43;;;;;;;;;;5070081;28;20051;-67
2021/09/09 05:23:20;;;;;;;29.00;15.50;;;;;;;;;;5054601;28;20040;-66
2021/09/09 05:25:47;;;;;;;33.55;16.98;;;;;;;;;;5069975;28;20474;-66
2021/09/09 05:28:13;;;;;;;30.17;17.33;;;;;;;;;;5066895;28;20079;-67
2021/09/09 05:30:40;;;;;;;30.95;16.90;;;;;;;;;;5063882;28;20040;-67
2021/09/09 05:33:06;;;;;;;31.58;16.35;;;;;;;;;;5068200;28;20481;-67
2021/09/09 05:35:33;;;;;;;38.53;17.17;;;;;;;;;;5067925;28;20065;-66
2021/09/09 05:37:59;;;;;;;32.13;17.17;;;;;;;;;;5057376;28;20044;-65
2021/09/09 05:40:25;;;;;;;36.90;17.38;;;;;;;;;;5068798;28;20036;-67
2021/09/09 05:42:52;;;;;;;30.48;16.73;;;;;;;;;;5059967;28;20083;-67
2021/09/09 05:45:18;;;;;;;29.52;16.92;;;;;;;;;;5063358;28;20044;-66
2021/09/09 05:47:45;;;;;;;34.13;17.70;;;;;;;;;;5060617;28;20041;-67
2021/09/09 05:50:11;;;;;;;33.00;17.92;;;;;;;;;;5069357;28;20461;-66
2021/09/09 05:52:38;;;;;;;35.05;19.30;;;;;;;;;;5068374;28;20083;-67
2021/09/09 05:55:04;;;;;;;33.10;18.25;;;;;;;;;;5065315;28;20098;-67
2021/09/09 05:57:31;;;;;;;32.25;16.60;;;;;;;;;;5065787;28;20051;-67
2021/09/09 05:59:57;;;;;;;32.42;15.05;;;;;;;;;;5065269;28;20060;-67
2021/09/09 06:02:27;;;;;;;31.55;16.10;;;;;;;;;;5065659;28;20521;-67
2021/09/09 06:04:55;;;;;;;34.65;16.15;;;;;;;;;;5065917;28;20088;-67
2021/09/09 06:07:22;;;;;;;30.83;16.30;;;;;;;;;;5067129;28;20045;-66
2021/09/09 06:09:48;;;;;;;26.58;13.63;;;;;;;;;;5064682;28;20490;-66
2021/09/09 06:12:15;;;;;;;26.10;14.35;;;;;;;;;;5065812;28;20079;-66
2021/09/09 06:14:41;;;;;;;21.35;12.55;;;;;;;;;;5067867;28;20053;-66
2021/09/09 06:17:08;;;;;;;21.63;12.63;;;;;;;;;;5064590;28;20052;-66
2021/09/09 06:19:34;;;;;;;23.60;12.77;;;;;;;;;;5064124;28;20605;-66
2021/09/09 06:22:00;;;;;;;18.83;10.82;;;;;;;;;;5063868;28;20122;-63
2021/09/09 06:24:27;;;;;;;20.70;11.23;;;;;;;;;;5063663;28;20479;-63
2021/09/09 06:26:53;;;;;;;34.63;10.43;;;;;;;;;;5064454;28;20114;-64
2021/09/09 06:29:20;;;;;;;18.13;10.98;;;;;;;;;;5067663;28;20095;-65
2021/09/09 06:31:46;;;;;;;20.25;11.23;;;;;;;;;;5066064;28;20055;-64
2021/09/09 06:34:13;;;;;;;25.50;11.30;;;;;;;;;;5056945;28;20079;-64
2021/09/09 06:36:39;;;;;;;17.73;10.55;;;;;;;;;;5059962;28;20053;-64
2021/09/09 06:39:06;;;;;;;20.48;11.10;;;;;;;;;;5060496;28;20044;-64
2021/09/09 06:41:33;;;;;;;18.60;11.80;;;;;;;;;;5065402;28;20084;-64
2021/09/09 06:43:59;;;;;;;19.88;10.93;;;;;;;;;;5063805;28;20044;-64
2021/09/09 06:46:25;;;;;;;18.13;10.05;;;;;;;;;;5064067;28;20040;-63
2021/09/09 06:48:52;;;;;;;24.23;11.35;;;;;;;;;;5064174;28;20099;-64
2021/09/09 06:51:21;;;;;;;18.55;10.77;;;;;;;;;;5068725;28;20049;-64
2021/09/09 06:53:48;;;;;;;18.55;10.25;;;;;;;;;;5066371;28;20056;-63
2021/09/09 06:56:14;;;;;;;17.75;10.18;;;;;;;;;;5060439;28;20099;-63
2021/09/09 06:58:41;;;;;;;19.73;10.55;;;;;;;;;;5062246;28;20064;-65
2021/09/09 07:01:07;;;;;;;18.02;9.52;;;;;;;;;;5060097;28;20066;-65
2021/09/09 07:03:34;;;;;;;14.10;9.43;;;;;;;;;;5060157;28;20076;-66
2021/09/09 07:06:00;;;;;;;18.02;9.20;;;;;;;;;;5063674;28;20086;-64
2021/09/09 07:08:26;;;;;;;20.98;9.82;;;;;;;;;;5061358;28;20437;-64
2021/09/09 07:10:53;;;;;;;14.65;8.95;;;;;;;;;;5063314;28;20072;-64
2021/09/09 07:13:20;;;;;;;17.65;9.43;;;;;;;;;;5062652;28;20482;-63
2021/09/09 07:15:47;;;;;;;14.88;8.98;;;;;;;;;;5061868;28;20063;-64
2021/09/09 07:18:13;;;;;;;16.33;9.52;;;;;;;;;;5064445;28;20086;-64
2021/09/09 07:20:39;;;;;;;15.05;9.00;;;;;;;;;;5064500;28;20525;-64
2021/09/09 07:23:06;;;;;;;16.85;9.85;;;;;;;;;;5062556;28;20456;-64
2021/09/09 07:25:32;;;;;;;14.60;9.48;;;;;;;;;;5063921;28;20525;-64
2021/09/09 07:27:58;;;;;;;14.93;8.88;;;;;;;;;;5061540;28;20059;-65
2021/09/09 07:30:25;;;;;;;15.77;8.35;;;;;;;;;;5063561;28;20045;-64
2021/09/09 07:32:51;;;;;;;14.75;8.35;;;;;;;;;;5067771;28;20037;-64
2021/09/09 07:35:17;;;;;;;14.63;8.48;;;;;;;;;;5061178;28;20094;-64
2021/09/09 07:37:46;;;;;;;16.85;8.77;;;;;;;;;;5065394;28;20041;-66
2021/09/09 07:40:13;;;;;;;14.57;9.30;;;;;;;;;;5063482;28;20072;-65
2021/09/09 07:42:39;;;;;;;18.60;8.43;;;;;;;;;;5062682;28;20045;-64
2021/09/09 07:45:06;;;;;;;11.88;7.88;;;;;;;;;;5064639;28;20045;-66
2021/09/09 07:47:32;;;;;;;17.95;8.38;;;;;;;;;;5065866;28;20064;-65
2021/09/09 07:49:58;;;;;;;15.73;8.90;;;;;;;;;;5070300;28;20094;-65
2021/09/09 07:52:25;;;;;;;12.13;7.22;;;;;;;;;;5069506;28;20040;-64
2021/09/09 07:54:51;;;;;;;13.68;8.02;;;;;;;;;;5064485;28;20065;-67
2021/09/09 07:57:17;;;;;;;14.93;8.32;;;;;;;;;;5059205;28;20044;-65
2021/09/09 07:59:44;;;;;;;12.88;8.07;;;;;;;;;;5059781;28;20040;-65
2021/09/09 08:02:10;;;;;;;12.27;7.88;;;;;;;;;;5066268;28;20177;-65
2021/09/09 08:04:37;;;;;;;14.23;8.23;;;;;;;;;;5068452;28;20044;-65
2021/09/09 08:07:03;;;;;;;13.82;7.95;;;;;;;;;;5065532;28;20375;-65
2021/09/09 08:09:30;;;;;;;15.02;8.20;;;;;;;;;;5065670;28;20076;-64
2021/09/09 08:11:56;;;;;;;16.25;8.18;;;;;;;;;;5080788;28;20094;-65
2021/09/09 08:14:23;;;;;;;20.83;8.23;;;;;;;;;;5065825;28;20111;-65
2021/09/09 08:16:49;;;;;;;17.20;8.63;;;;;;;;;;5069341;28;20087;-66
2021/09/09 08:19:16;;;;;;;12.15;7.25;;;;;;;;;;5065119;28;20085;-65
2021/09/09 08:21:42;;;;;;;12.30;7.63;;;;;;;;;;5063543;28;20099;-66
2021/09/09 08:24:08;;;;;;;12.38;7.20;;;;;;;;;;5067587;28;20077;-66
2021/09/09 08:26:35;;;;;;;12.90;6.75;;;;;;;;;;5070750;28;20036;-65
2021/09/09 08:29:01;;;;;;;12.40;6.93;;;;;;;;;;5071386;28;20083;-66
2021/09/09 08:31:27;;;;;;;15.77;7.38;;;;;;;;;;5072339;28;20135;-65
2021/09/09 08:33:55;;;;;;;11.40;7.43;;;;;;;;;;5068712;28;20044;-65
2021/09/09 08:36:21;;;;;;;11.73;6.65;;;;;;;;;;5067558;28;20120;-67
2021/09/09 08:38:49;;;;;;;11.48;6.45;;;;;;;;;;5068275;28;20577;-67
2021/09/09 08:41:15;;;;;;;13.13;7.15;;;;;;;;;;5065295;28;20075;-66
2021/09/09 08:43:42;;;;;;;13.48;7.10;;;;;;;;;;5069781;28;20079;-67
2021/09/09 08:46:11;;;;;;;11.25;6.35;;;;;;;;;;5060330;28;20124;-67
2021/09/09 08:48:38;;;;;;;10.70;5.78;;;;;;;;;;5057697;28;20051;-67
2021/09/09 08:51:05;;;;;;;13.35;7.05;;;;;;;;;;5061241;28;20052;-66
2021/09/09 08:53:31;;;;;;;9.40;6.57;;;;;;;;;;5070415;28;20053;-67
2021/09/09 08:55:58;;;;;;;9.23;6.20;;;;;;;;;;5056974;28;20487;-66
2021/09/09 08:58:24;;;;;;;11.50;6.13;;;;;;;;;;5068792;28;20051;-67
2021/09/09 09:01:03;;;;;;;10.93;6.28;;;;;;;;;;5062052;28;20133;-67
2021/09/09 09:03:43;;;;;;;9.95;6.75;;;;;;;;;;5059134;28;20040;-67
2021/09/09 09:06:22;;;;;;;11.10;7.20;;;;;;;;;;5058332;28;20071;-67
2021/09/09 09:08:49;;;;;;;13.07;6.43;;;;;;;;;;5054056;28;20041;-67
2021/09/09 09:11:21;;;;;;;9.52;5.93;;;;;;;;;;5069496;28;20045;-67
2021/09/09 09:13:48;;;;;;;18.60;6.53;;;;;;;;;;5069874;28;20040;-67
2021/09/09 09:16:14;;;;;;;10.23;6.63;;;;;;;;;;5058614;28;20059;-67
2021/09/09 09:18:44;;;;;;;11.98;6.28;;;;;;;;;;5058586;28;20053;-67
2021/09/09 09:21:11;;;;;;;11.65;6.70;;;;;;;;;;5058194;28;20055;-67
2021/09/09 09:23:38;;;;;;;9.75;6.18;;;;;;;;;;5063746;28;20055;-67
2021/09/09 09:26:05;;;;;;;10.02;6.55;;;;;;;;;;5055996;28;20072;-67
2021/09/09 09:28:52;;;;;;;15.05;6.60;;;;;;;;;;5058225;28;20440;-67
2021/09/09 09:31:20;;;;;;;9.35;6.43;;;;;;;;;;5067035;28;20525;-68
2021/09/09 09:33:47;;;;;;;9.10;6.32;;;;;;;;;;5062919;28;20407;-68
2021/09/09 09:36:15;;;;;;;11.15;6.30;;;;;;;;;;5058076;28;20052;-68
2021/09/09 09:38:42;;;;;;;12.07;6.78;;;;;;;;;;5056638;28;20091;-68
2021/09/09 09:41:08;;;;;;;10.40;5.93;;;;;;;;;;5055580;28;20049;-68
2021/09/09 09:43:35;;;;;;;11.18;5.63;;;;;;;;;;5057339;28;20045;-68
2021/09/09 09:46:04;;;;;;;9.77;6.28;;;;;;;;;;5057742;28;20049;-68
2021/09/09 09:48:33;;;;;;;8.85;5.72;;;;;;;;;;5059937;28;20052;-68
2021/09/09 09:51:02;;;;;;;10.32;6.13;;;;;;;;;;5058619;28;20048;-68
2021/09/09 09:53:29;;;;;;;10.07;6.03;;;;;;;;;;5055226;28;20113;-69
2021/09/09 09:55:55;;;;;;;10.82;6.55;;;;;;;;;;5068535;28;20074;-69
2021/09/09 09:58:21;;;;;;;9.40;6.38;;;;;;;;;;5058232;28;20045;-69
2021/09/09 10:00:48;;;;;;;11.65;6.43;;;;;;;;;;5058031;28;20076;-68
2021/09/09 10:03:14;;;;;;;14.48;6.50;;;;;;;;;;5058923;28;20102;-69
2021/09/09 10:05:41;;;;;;;10.07;6.40;;;;;;;;;;5062591;28;20064;-69
2021/09/09 10:08:08;;;;;;;11.30;6.50;;;;;;;;;;5069496;28;20079;-69
2021/09/09 10:10:35;;;;;;;9.25;6.00;;;;;;;;;;5070980;28;20047;-68
2021/09/09 10:13:01;;;;;;;9.40;5.60;;;;;;;;;;5068781;28;20036;-69
2021/09/09 10:15:28;;;;;;;9.63;6.43;;;;;;;;;;5067954;28;20087;-69
2021/09/09 10:17:55;;;;;;;11.43;7.07;;;;;;;;;;5071345;28;20044;-69
2021/09/09 10:20:30;;;;;;;14.32;7.28;;;;;;;;;;5070957;28;20091;-68
2021/09/09 10:23:06;;;;;;;10.20;6.38;;;;;;;;;;5070015;28;20072;-69
2021/09/09 10:25:47;;;;;;;12.68;6.95;;;;;;;;;;5070953;28;20444;-69
2021/09/09 10:28:49;;;;;;;8.52;6.03;;;;;;;;;;5068749;28;20079;-69
2021/09/09 10:31:18;;;;;;;9.35;5.78;;;;;;;;;;5065249;28;20072;-69
2021/09/09 10:33:49;;;;;;;8.57;6.05;;;;;;;;;;5060068;28;20142;-70
2021/09/09 10:36:34;;;;;;;8.40;5.97;;;;;;;;;;5057074;28;20418;-69
2021/09/09 10:39:00;;;;;;;9.23;5.47;;;;;;;;;;5068539;28;20105;-70
2021/09/09 10:41:28;;;;;;;13.00;6.10;;;;;;;;;;5053394;28;20049;-69
2021/09/09 10:43:58;;;;;;;8.38;5.75;;;;;;;;;;5055440;28;20060;-69
2021/09/09 10:46:30;;;;;;;9.90;5.40;;;;;;;;;;5067421;28;20076;-70
2021/09/09 10:49:10;;;;;;;7.63;5.25;;;;;;;;;;5060331;28;20427;-70
2021/09/09 10:51:37;;;;;;;10.55;5.40;;;;;;;;;;5057181;28;20072;-70
2021/09/09 10:54:04;;;;;;;7.65;5.15;;;;;;;;;;5057184;28;20041;-69
2021/09/09 10:56:35;;;;;;;10.48;6.28;;;;;;;;;;5052567;28;20045;-69
2021/09/09 10:59:09;;;;;;;8.05;5.18;;;;;;;;;;5055244;28;20128;-69
2021/09/09 11:01:36;;;;;;;9.85;5.07;;;;;;;;;;5056661;28;20056;-69
2021/09/09 11:04:03;;;;;;;6.38;5.35;;;;;;;;;;5056888;28;20085;-69
2021/09/09 11:06:29;;;;;;;8.15;5.80;;;;;;;;;;5056824;28;20045;-70
2021/09/09 11:08:56;;;;;;;10.00;5.47;;;;;;;;;;5056692;28;20401;-69
2021/09/09 11:11:28;;;;;;;8.23;5.70;;;;;;;;;;5053940;28;20495;-69
2021/09/09 11:14:00;;;;;;;6.40;5.20;;;;;;;;;;5068134;28;20048;-69
2021/09/09 11:16:28;;;;;;;10.52;5.82;;;;;;;;;;5069239;28;20130;-70
2021/09/09 11:18:54;;;;;;;8.75;5.47;;;;;;;;;;5060400;28;20110;-70
2021/09/09 11:21:24;;;;;;;10.15;5.97;;;;;;;;;;5056669;28;20049;-69
2021/09/09 11:23:57;;;;;;;7.97;5.53;;;;;;;;;;5056585;28;20048;-70
2021/09/09 11:26:24;;;;;;;10.40;5.68;;;;;;;;;;5052741;28;20040;-69
2021/09/09 11:28:51;;;;;;;6.30;4.68;;;;;;;;;;5056544;28;20052;-70
2021/09/09 11:31:19;;;;;;;6.90;5.03;;;;;;;;;;5051233;28;20053;-70
2021/09/09 11:33:49;;;;;;;13.68;5.32;;;;;;;;;;5051224;28;20045;-70
2021/09/09 11:36:16;;;;;;;7.00;5.28;;;;;;;;;;5051305;28;20051;-70
2021/09/09 11:38:42;;;;;;;12.23;5.55;;;;;;;;;;5055757;28;22411;-70
2021/09/09 11:41:11;;;;;;;6.65;4.97;;;;;;;;;;5053712;28;20041;-70
2021/09/09 11:43:38;;;;;;;8.85;5.53;;;;;;;;;;5063454;28;20045;-70
2021/09/09 11:46:04;;;;;;;8.68;5.18;;;;;;;;;;5068362;28;20127;-69
2021/09/09 11:48:31;;;;;;;6.78;5.03;;;;;;;;;;5068648;28;20052;-70
2021/09/09 11:50:57;;;;;;;7.53;4.93;;;;;;;;;;5067548;28;20490;-70
2021/09/09 11:53:24;;;;;;;8.75;5.05;;;;;;;;;;5052677;28;20068;-68
2021/09/09 11:55:51;;;;;;;7.93;4.90;;;;;;;;;;5067667;28;20041;-70
2021/09/09 11:58:32;;;;;;;8.88;6.43;;;;;;;;;;5066970;28;20045;-69
2021/09/09 12:01:00;;;;;;;7.03;4.88;;;;;;;;;;5059266;28;20193;-69
2021/09/09 12:03:27;;;;;;;9.77;5.60;;;;;;;;;;5056684;28;20095;-69
2021/09/09 12:05:53;;;;;;;12.18;5.60;;;;;;;;;;5056188;28;20047;-70
2021/09/09 12:08:20;;;;;;;7.43;4.90;;;;;;;;;;5057478;28;20041;-69
2021/09/09 12:10:46;;;;;;;8.30;5.20;;;;;;;;;;5056339;28;20071;-70
2021/09/09 12:13:19;;;;;;;8.50;5.03;;;;;;;;;;5058048;28;20053;-70
2021/09/09 12:15:45;;;;;;;6.82;4.95;;;;;;;;;;5056574;28;20087;-68
2021/09/09 12:18:11;;;;;;;10.05;5.47;;;;;;;;;;5058516;28;20497;-70
2021/09/09 12:20:38;;;;;;;7.15;4.88;;;;;;;;;;5057916;28;20057;-69
2021/09/09 12:23:05;;;;;;;7.60;5.18;;;;;;;;;;5057651;28;20057;-69
2021/09/09 12:25:31;;;;;;;8.07;5.28;;;;;;;;;;5059279;28;20041;-69
2021/09/09 12:28:03;;;;;;;9.90;4.95;;;;;;;;;;5060070;28;20045;-69
2021/09/09 12:30:31;;;;;;;6.70;5.13;;;;;;;;;;5061978;28;20443;-69
2021/09/09 12:32:57;;;;;;;8.10;5.03;;;;;;;;;;5070589;28;20040;-69
2021/09/09 12:35:24;;;;;;;6.38;4.85;;;;;;;;;;5057802;28;20048;-69
2021/09/09 12:38:01;;;;;;;7.28;5.15;;;;;;;;;;5074640;28;20044;-69
2021/09/09 12:40:42;;;;;;;7.57;5.35;;;;;;;;;;5059475;28;20048;-69
2021/09/09 12:43:27;;;;;;;8.38;4.88;;;;;;;;;;5059549;28;20083;-69
2021/09/09 12:45:54;;;;;;;6.55;4.90;;;;;;;;;;5059555;28;20486;-69
2021/09/09 12:48:20;;;;;;;6.53;4.43;;;;;;;;;;5059757;28;20065;-69
2021/09/09 12:50:54;;;;;;;11.38;5.00;;;;;;;;;;5064426;28;20102;-67
2021/09/09 12:53:20;;;;;;;9.05;5.20;;;;;;;;;;5055015;28;20041;-67
2021/09/09 12:55:47;;;;;;;13.13;5.03;;;;;;;;;;5070371;28;20136;-67
2021/09/09 12:58:13;;;;;;;7.88;4.90;;;;;;;;;;5059763;28;20391;-67
2021/09/09 13:00:40;;;;;;;7.07;4.60;;;;;;;;;;5059296;28;20051;-68
2021/09/09 13:03:07;;;;;;;4.80;3.75;;;;;;;;;;5059158;28;20075;-67
2021/09/09 13:05:33;;;;;;;9.38;4.60;;;;;;;;;;5056398;28;20075;-69
2021/09/09 13:07:59;;;;;;;7.78;4.47;;;;;;;;;;5055433;28;20041;-67
2021/09/09 13:10:26;;;;;;;8.30;4.97;;;;;;;;;;5069268;28;20068;-67
2021/09/09 13:12:55;;;;;;;7.25;4.70;;;;;;;;;;5069293;28;20383;-68
2021/09/09 13:15:21;;;;;;;9.00;4.72;;;;;;;;;;5067727;28;20419;-68
2021/09/09 13:17:49;;;;;;;7.95;5.40;;;;;;;;;;5065557;28;20494;-67
2021/09/09 13:20:16;;;;;;;8.32;5.35;;;;;;;;;;5054681;28;20052;-67
2021/09/09 13:22:42;;;;;;;7.32;4.90;;;;;;;;;;5057980;28;20053;-66
2021/09/09 13:25:09;;;;;;;9.18;4.93;;;;;;;;;;5058800;28;20087;-68
2021/09/09 13:27:35;;;;;;;9.35;5.55;;;;;;;;;;5058831;28;20466;-66
2021/09/09 13:30:01;;;;;;;6.70;5.18;;;;;;;;;;5058695;28;20053;-66
2021/09/09 13:32:28;;;;;;;6.80;5.45;;;;;;;;;;5055206;28;20072;-67
2021/09/09 13:34:54;;;;;;;10.45;5.47;;;;;;;;;;5056874;28;20041;-66
2021/09/09 13:37:20;;;;;;;12.00;5.47;;;;;;;;;;5058633;28;20103;-67
2021/09/09 13:39:47;;;;;;;6.97;5.03;;;;;;;;;;5058611;28;20081;-67
2021/09/09 13:42:13;;;;;;;7.05;4.95;;;;;;;;;;5058281;28;20044;-66
2021/09/09 13:44:39;;;;;;;9.18;5.43;;;;;;;;;;5056762;28;20045;-66
2021/09/09 13:47:06;;;;;;;8.55;5.43;;;;;;;;;;5054985;28;20076;-68
2021/09/09 13:49:32;;;;;;;6.03;4.65;;;;;;;;;;5069049;28;20490;-66
2021/09/09 13:51:58;;;;;;;6.88;5.13;;;;;;;;;;5063270;28;20048;-68
2021/09/09 13:54:25;;;;;;;9.70;5.18;;;;;;;;;;5064744;28;20123;-69
2021/09/09 13:56:51;;;;;;;6.78;4.95;;;;;;;;;;5056873;28;20067;-69
2021/09/09 13:59:17;;;;;;;6.55;4.80;;;;;;;;;;5053871;28;20182;-69
2021/09/09 14:01:44;;;;;;;10.25;5.30;;;;;;;;;;5062771;28;20140;-69
2021/09/09 14:04:10;;;;;;;9.20;4.65;;;;;;;;;;5059302;28;20060;-69
2021/09/09 14:06:38;;;;;;;7.35;5.40;;;;;;;;;;5057877;28;20044;-69
2021/09/09 14:09:05;;;;;;;14.00;5.10;;;;;;;;;;5059182;28;20068;-68
2021/09/09 14:11:33;;;;;;;7.15;5.43;;;;;;;;;;5069572;28;20071;-69
2021/09/09 14:14:00;;;;;;;8.50;5.45;;;;;;;;;;5064577;28;20072;-69
2021/09/09 14:16:27;;;;;;;6.95;5.07;;;;;;;;;;5058202;28;20140;-69
2021/09/09 14:18:55;;;;;;;8.23;5.63;;;;;;;;;;5065532;28;20056;-69
2021/09/09 14:21:21;;;;;;;12.02;6.03;;;;;;;;;;5066456;28;20047;-67
2021/09/09 14:23:48;;;;;;;6.63;5.10;;;;;;;;;;5069291;28;20052;-68
2021/09/09 14:26:14;;;;;;;8.88;5.72;;;;;;;;;;5054684;28;20044;-67